createdAt,value
2019-01-11T00:01:00.340Z,102515.13
2019-01-11T00:03:29.407Z,102508.80
2019-01-11T00:05:58.540Z,102512.16
2019-01-11T00:08:29.063Z,102504.16
2019-01-11T00:10:58.195Z,102507.12
2019-01-11T00:13:27.296Z,102507.12
2019-01-11T00:15:56.499Z,102500.80
2019-01-11T00:18:26.365Z,102497.85
2019-01-11T00:20:55.469Z,102497.85
2019-01-11T00:23:24.676Z,102493.21
2019-01-11T00:25:53.852Z,102494.89
2019-01-11T00:28:22.982Z,102488.16
2019-01-11T00:30:52.146Z,102483.11
2019-01-11T00:33:21.342Z,102483.94
2019-01-11T00:35:50.487Z,102480.57
2019-01-11T00:38:19.616Z,102480.57
2019-01-11T00:40:48.824Z,102477.61
2019-01-11T00:43:18.026Z,102470.43
2019-01-11T00:45:47.119Z,102470.43
2019-01-11T00:48:16.304Z,102471.28
2019-01-11T00:50:45.565Z,102464.12
2019-01-11T00:53:14.696Z,102465.38
2019-01-11T00:55:43.873Z,102465.38
2019-01-11T00:58:12.894Z,102462.42
2019-01-11T01:00:42.060Z,102462.44
2019-01-11T01:03:11.228Z,102463.23
2019-01-11T01:05:40.438Z,102465.77
2019-01-11T01:08:09.632Z,102465.77
2019-01-11T01:10:38.913Z,102459.86
2019-01-11T01:13:08.185Z,102461.98
2019-01-11T01:15:37.445Z,102457.78
2019-01-11T01:18:06.651Z,102457.78
2019-01-11T01:20:36.443Z,102455.26
2019-01-11T01:23:05.624Z,102457.32
2019-01-11T01:25:34.752Z,102453.98
2019-01-11T01:28:04.121Z,102453.98
2019-01-11T01:30:33.251Z,102458.98
2019-01-11T01:33:02.397Z,102459.42
2019-01-11T01:35:31.601Z,102458.55
2019-01-11T01:38:00.865Z,102458.55
2019-01-11T01:40:30.074Z,102448.44
2019-01-11T01:42:59.124Z,102447.59
2019-01-11T01:45:28.261Z,102447.59
2019-01-11T01:47:57.448Z,102446.73
2019-01-11T01:50:26.623Z,102446.73
2019-01-11T01:52:55.769Z,102441.67
2019-01-11T01:55:25.043Z,102444.64
2019-01-11T01:57:54.195Z,102444.64
2019-01-11T02:00:23.386Z,102446.76
2019-01-11T02:02:52.649Z,102447.61
2019-01-11T02:05:21.895Z,102449.27
2019-01-11T02:07:51.088Z,102448.86
2019-01-11T02:10:20.203Z,102448.86
2019-01-11T02:12:49.318Z,102438.70
2019-01-11T02:15:18.558Z,102434.91
2019-01-11T02:17:47.710Z,102431.55
2019-01-11T02:20:18.133Z,102434.08
2019-01-11T02:22:47.330Z,102436.59
2019-01-11T02:25:16.645Z,102434.47
2019-01-11T02:27:45.794Z,102439.93
2019-01-11T02:30:22.802Z,102431.92
2019-01-11T02:32:53.212Z,102431.09
2019-01-11T02:35:22.577Z,102431.91
2019-01-11T02:37:51.819Z,102431.91
2019-01-11T02:40:20.973Z,102432.32
2019-01-11T02:42:50.065Z,102429.78
2019-01-11T02:45:21.333Z,102429.78
2019-01-11T02:47:50.590Z,102428.94
2019-01-11T02:50:19.824Z,102428.94
2019-01-11T02:52:48.999Z,102427.21
2019-01-11T02:55:18.053Z,102427.21
2019-01-11T02:57:47.091Z,102424.72
2019-01-11T03:00:18.714Z,102424.72
2019-01-11T03:02:48.474Z,102420.91
2019-01-11T03:05:18.310Z,102420.91
2019-01-11T03:07:47.959Z,102418.80
2019-01-11T03:10:19.067Z,102418.80
2019-01-11T03:12:48.321Z,102410.37
2019-01-11T03:15:18.060Z,102417.92
2019-01-11T03:17:47.233Z,102417.92
2019-01-11T03:20:17.508Z,102409.48
2019-01-11T03:22:46.785Z,102410.74
2019-01-11T03:25:16.650Z,102412.84
2019-01-11T03:27:45.903Z,102412.84
2019-01-11T03:30:17.166Z,102404.41
2019-01-11T03:32:46.233Z,102406.08
2019-01-11T03:35:19.582Z,102409.86
2019-01-11T03:37:50.412Z,102409.86
2019-01-11T03:40:25.273Z,102403.95
2019-01-11T03:42:54.550Z,102387.92
2019-01-11T03:45:25.750Z,102385.79
2019-01-11T03:47:55.039Z,102387.03
2019-01-11T03:50:25.092Z,102387.03
2019-01-11T03:52:54.198Z,102387.88
2019-01-11T03:55:23.340Z,102387.03
2019-01-11T03:57:52.579Z,102386.14
2019-01-11T04:00:23.687Z,102387.81
2019-01-11T04:02:52.866Z,102382.78
2019-01-11T04:05:22.209Z,102376.84
2019-01-11T04:07:51.646Z,102381.89
2019-01-11T04:10:24.674Z,102381.89
2019-01-11T04:12:53.927Z,102377.67
2019-01-11T04:15:24.630Z,102373.44
2019-01-11T04:18:28.294Z,102373.44
2019-01-11T04:20:57.472Z,102378.45
2019-01-11T04:23:26.632Z,102378.45
2019-01-11T04:25:55.761Z,102382.70
2019-01-11T04:28:24.861Z,102371.26
2019-01-11T04:30:54.077Z,102371.26
2019-01-11T04:33:23.222Z,102369.14
2019-01-11T04:35:52.454Z,102372.94
2019-01-11T04:38:21.488Z,102370.39
2019-01-11T04:40:50.574Z,102372.89
2019-01-11T04:43:19.706Z,102372.89
2019-01-11T04:45:48.891Z,102374.56
2019-01-11T04:48:18.093Z,102363.58
2019-01-11T04:50:47.199Z,102364.44
2019-01-11T04:53:16.307Z,102364.44
2019-01-11T04:55:45.425Z,102362.34
2019-01-11T04:58:14.558Z,102363.98
2019-01-11T05:00:43.779Z,102363.98
2019-01-11T05:03:12.971Z,102366.06
2019-01-11T05:05:42.219Z,102366.05
2019-01-11T05:08:11.262Z,102370.67
2019-01-11T05:10:40.451Z,102369.38
2019-01-11T05:13:30.783Z,102357.14
2019-01-11T05:15:59.972Z,102357.14
2019-01-11T05:18:30.149Z,102352.90
2019-01-11T05:20:59.361Z,102352.84
2019-01-11T05:23:28.608Z,102352.84
2019-01-11T05:25:57.854Z,102355.77
2019-01-11T05:28:27.391Z,102355.77
2019-01-11T05:30:57.764Z,102357.06
2019-01-11T05:33:26.964Z,102362.55
2019-01-11T05:35:56.166Z,102352.86
2019-01-11T05:38:25.334Z,102352.86
2019-01-11T05:40:54.565Z,102352.84
2019-01-11T05:43:23.583Z,102360.86
2019-01-11T05:45:52.645Z,102356.22
2019-01-11T05:48:21.696Z,102360.41
2019-01-11T05:50:52.487Z,102361.23
2019-01-11T05:53:21.578Z,102368.02
2019-01-11T05:55:52.280Z,102377.70
2019-01-11T05:58:38.457Z,102373.89
2019-01-11T06:01:08.837Z,102372.61
2019-01-11T06:03:40.076Z,102379.74
2019-01-11T06:06:09.258Z,102384.80
2019-01-11T06:08:38.763Z,102384.38
2019-01-11T06:11:09.303Z,102382.48
2019-01-11T06:13:38.438Z,102382.48
2019-01-11T06:16:07.648Z,102379.95
2019-01-11T06:18:36.912Z,102373.52
2019-01-11T06:21:06.198Z,102381.51
2019-01-11T06:23:35.270Z,102381.51
2019-01-11T06:26:04.554Z,102393.30
2019-01-11T06:28:33.780Z,102397.09
2019-01-11T06:31:03.010Z,102401.25
2019-01-11T06:33:32.094Z,102396.99
2019-01-11T06:36:01.451Z,102399.08
2019-01-11T06:38:30.566Z,102393.56
2019-01-11T06:40:59.763Z,102397.30
2019-01-11T06:43:28.968Z,102397.30
2019-01-11T06:45:58.048Z,102397.30
2019-01-11T06:48:38.605Z,102399.42
2019-01-11T06:51:07.835Z,102399.42
2019-01-11T06:53:37.004Z,102401.45
2019-01-11T06:56:06.303Z,102403.52
2019-01-11T06:58:35.441Z,102405.59
2019-01-11T07:01:04.602Z,102402.19
2019-01-11T07:03:34.542Z,102402.19
2019-01-11T07:06:03.553Z,102406.81
2019-01-11T07:08:32.705Z,102403.42
2019-01-11T07:11:01.900Z,102405.91
2019-01-11T07:13:31.065Z,102405.91
2019-01-11T07:16:00.103Z,102415.58
2019-01-11T07:18:29.299Z,102415.58
2019-01-11T07:20:58.512Z,102417.57
2019-01-11T07:23:27.718Z,102419.20
2019-01-11T07:25:56.873Z,102419.20
2019-01-11T07:28:25.941Z,102417.91
2019-01-11T07:31:20.013Z,102422.02
2019-01-11T07:33:49.166Z,102422.02
2019-01-11T07:36:43.081Z,102419.44
2019-01-11T07:39:30.056Z,102438.84
2019-01-11T07:41:59.411Z,102436.66
2019-01-11T07:44:28.581Z,102436.66
2019-01-11T07:46:57.803Z,102437.45
2019-01-11T07:49:28.507Z,102437.02
2019-01-11T07:51:57.685Z,102434.03
2019-01-11T07:54:26.894Z,102437.74
2019-01-11T07:56:56.415Z,102442.79
2019-01-11T07:59:25.420Z,102442.79
2019-01-11T08:01:54.433Z,102442.30
2019-01-11T08:04:23.657Z,102438.45
2019-01-11T08:06:52.842Z,102432.56
2019-01-11T08:09:22.107Z,102431.27
2019-01-11T08:11:51.318Z,102428.27
2019-01-11T08:14:20.365Z,102428.27
2019-01-11T08:16:50.993Z,102423.19
2019-01-11T08:19:21.104Z,102423.19
2019-01-11T08:21:51.020Z,102421.88
2019-01-11T08:24:24.928Z,102426.08
2019-01-11T08:26:56.169Z,102430.73
2019-01-11T08:29:25.881Z,102429.05
2019-01-11T08:31:56.038Z,102431.58
2019-01-11T08:34:27.356Z,102430.28
2019-01-11T08:36:56.958Z,102421.75
2019-01-11T08:39:32.357Z,102421.75
2019-01-11T08:41:58.406Z,102418.78
2019-01-11T08:44:27.541Z,102416.13
2019-01-11T08:46:57.950Z,102416.13
2019-01-11T08:49:29.254Z,102416.52
2019-01-11T08:52:00.579Z,102417.72
2019-01-11T08:54:29.616Z,102410.94
2019-01-11T08:57:00.514Z,102411.72
2019-01-11T08:59:30.680Z,102408.68
2019-01-11T09:01:59.716Z,102408.68
2019-01-11T09:04:29.453Z,102411.53
2019-01-11T09:06:58.513Z,102411.53
2019-01-11T09:09:27.591Z,102412.80
2019-01-11T09:11:57.399Z,102411.98
2019-01-11T09:14:52.733Z,102413.99
2019-01-11T09:17:23.370Z,102419.50
2019-01-11T09:19:55.055Z,102419.50
2019-01-11T09:22:25.943Z,102420.77
2019-01-11T09:24:57.496Z,102418.11
2019-01-11T09:27:27.666Z,102418.11
2019-01-11T09:29:56.848Z,102418.50
2019-01-11T09:32:26.211Z,102420.19
2019-01-11T09:34:55.386Z,102420.19
2019-01-11T09:37:24.529Z,102422.27
2019-01-11T09:39:53.684Z,102428.62
2019-01-11T09:42:22.747Z,102430.66
2019-01-11T09:44:51.815Z,102424.31
2019-01-11T09:47:21.098Z,102424.31
2019-01-11T09:49:51.093Z,102428.55
2019-01-11T09:52:20.206Z,102428.55
2019-01-11T09:54:49.416Z,102426.77
2019-01-11T09:57:18.445Z,102431.34
2019-01-11T09:59:47.551Z,102430.11
2019-01-11T10:02:36.391Z,102428.84
2019-01-11T10:05:07.588Z,102432.20
2019-01-11T10:07:36.754Z,102432.20
2019-01-11T10:10:10.474Z,102423.21
2019-01-11T10:12:39.682Z,102423.21
2019-01-11T10:15:10.159Z,102430.37
2019-01-11T10:17:39.391Z,102430.37
2019-01-11T10:20:10.894Z,102429.95
2019-01-11T10:22:40.103Z,102420.59
2019-01-11T10:25:09.576Z,102422.97
2019-01-11T10:27:38.740Z,102420.80
2019-01-11T10:30:11.122Z,102429.23
2019-01-11T10:32:40.327Z,102429.23
2019-01-11T10:35:09.929Z,102424.87
2019-01-11T10:37:39.107Z,102421.43
2019-01-11T10:40:11.214Z,102421.43
2019-01-11T10:42:40.295Z,102427.58
2019-01-11T10:45:12.732Z,102427.58
2019-01-11T10:47:41.916Z,102419.42
2019-01-11T10:50:13.757Z,102419.42
2019-01-11T10:52:42.928Z,102423.63
2019-01-11T10:55:13.504Z,102419.48
2019-01-11T10:57:42.698Z,102419.48
2019-01-11T11:00:16.150Z,102424.47
2019-01-11T11:02:45.282Z,102421.83
2019-01-11T11:05:14.484Z,102415.51
2019-01-11T11:07:43.643Z,102415.41
2019-01-11T11:10:15.008Z,102414.91
2019-01-11T11:12:44.175Z,102416.13
2019-01-11T11:15:14.150Z,102413.15
2019-01-11T11:17:43.358Z,102413.15
2019-01-11T11:20:14.305Z,102413.53
2019-01-11T11:22:44.235Z,102412.59
2019-01-11T11:25:16.176Z,102406.97
2019-01-11T11:27:45.299Z,102403.63
2019-01-11T11:30:15.618Z,102406.98
2019-01-11T11:33:03.662Z,102406.98
2019-01-11T11:35:33.060Z,102403.16
2019-01-11T11:38:02.155Z,102403.72
2019-01-11T11:40:32.496Z,102398.63
2019-01-11T11:43:01.591Z,102398.63
2019-01-11T11:45:30.950Z,102401.52
2019-01-11T11:48:00.076Z,102402.87
2019-01-11T11:50:29.248Z,102396.80
2019-01-11T11:52:58.489Z,102395.72
2019-01-11T11:55:28.192Z,102393.59
2019-01-11T11:57:57.334Z,102396.89
2019-01-11T12:00:28.002Z,102392.13
2019-01-11T12:02:57.226Z,102392.13
2019-01-11T12:05:26.421Z,102388.31
2019-01-11T12:07:55.748Z,102388.31
2019-01-11T12:10:24.854Z,102388.31
2019-01-11T12:12:54.264Z,102387.84
2019-01-11T12:15:23.390Z,102384.77
2019-01-11T12:17:52.528Z,102384.77
2019-01-11T12:20:30.680Z,102386.80
2019-01-11T12:22:59.897Z,102374.19
2019-01-11T12:25:29.024Z,102374.19
2019-01-11T12:27:59.477Z,102364.67
2019-01-11T12:30:28.600Z,102364.67
2019-01-11T12:32:57.725Z,102363.66
2019-01-11T12:35:26.946Z,102363.66
2019-01-11T12:37:56.035Z,102352.89
2019-01-11T12:40:25.169Z,102355.75
2019-01-11T12:42:54.138Z,102356.39
2019-01-11T12:45:23.368Z,102347.12
2019-01-11T12:47:52.565Z,102347.12
2019-01-11T12:50:26.736Z,102348.86
2019-01-11T12:52:55.796Z,102351.52
2019-01-11T12:55:24.920Z,102348.66
2019-01-11T12:57:55.351Z,102338.92
2019-01-11T13:00:24.503Z,102338.92
2019-01-11T13:02:53.569Z,102338.92
2019-01-11T13:05:23.141Z,102344.59
2019-01-11T13:07:52.352Z,102344.59
2019-01-11T13:10:22.018Z,102341.27
2019-01-11T13:12:51.027Z,102344.83
2019-01-11T13:15:22.030Z,102347.70
2019-01-11T13:17:51.248Z,102339.69
2019-01-11T13:20:21.552Z,102339.69
2019-01-11T13:22:51.021Z,102343.50
2019-01-11T13:25:20.209Z,102343.50
2019-01-11T13:27:49.374Z,102347.02
2019-01-11T13:30:18.999Z,102339.42
2019-01-11T13:32:48.184Z,102341.33
2019-01-11T13:35:17.418Z,102341.33
2019-01-11T13:37:46.609Z,102340.11
2019-01-11T13:40:21.403Z,102350.67
2019-01-11T13:42:50.590Z,102350.67
2019-01-11T13:45:19.796Z,102341.98
2019-01-11T13:47:50.057Z,102340.33
2019-01-11T13:50:36.303Z,102346.11
2019-01-11T13:53:06.800Z,102346.11
2019-01-11T13:55:36.091Z,102345.53
2019-01-11T13:58:06.714Z,102344.41
2019-01-11T14:00:35.946Z,102335.34
2019-01-11T14:03:05.386Z,102335.34
2019-01-11T14:05:34.507Z,102334.28
2019-01-11T14:08:03.692Z,102337.24
2019-01-11T14:10:32.725Z,102340.95
2019-01-11T14:13:01.906Z,102337.95
2019-01-11T14:15:31.052Z,102341.98
2019-01-11T14:18:00.189Z,102341.98
2019-01-11T14:20:29.356Z,102342.88
2019-01-11T14:22:58.592Z,102338.16
2019-01-11T14:25:27.635Z,102347.38
2019-01-11T14:27:56.879Z,102344.09
2019-01-11T14:30:26.033Z,102344.09
2019-01-11T14:32:55.260Z,102342.88
2019-01-11T14:35:24.433Z,102345.94
2019-01-11T14:37:53.665Z,102345.94
2019-01-11T14:40:22.729Z,102349.67
2019-01-11T14:42:51.805Z,102356.03
2019-01-11T14:45:21.010Z,102356.03
2019-01-11T14:47:50.068Z,102353.96
2019-01-11T14:50:20.069Z,102356.94
2019-01-11T14:52:49.529Z,102356.94
2019-01-11T14:55:18.624Z,102356.46
2019-01-11T14:57:47.870Z,102358.30
2019-01-11T15:00:19.896Z,102359.16
2019-01-11T15:02:49.215Z,102357.12
2019-01-11T15:05:18.766Z,102357.12
2019-01-11T15:07:47.975Z,102358.94
2019-01-11T15:10:17.705Z,102356.63
2019-01-11T15:15:22.657Z,102359.88
2019-01-11T15:17:51.946Z,102359.52
2019-01-11T15:20:22.063Z,102354.80
2019-01-11T15:22:51.313Z,102359.17
2019-01-11T15:25:20.504Z,102360.94
2019-01-11T15:27:49.688Z,102361.30
2019-01-11T15:30:20.698Z,102358.11
2019-01-11T15:32:49.944Z,102358.11
2019-01-11T15:35:19.468Z,102358.25
2019-01-11T15:37:48.732Z,102364.24
2019-01-11T15:40:38.332Z,102358.32
2019-01-11T15:43:07.495Z,102357.41
2019-01-11T15:45:36.559Z,102351.63
2019-01-11T15:48:07.405Z,102351.63
2019-01-11T15:50:57.179Z,102359.69
2019-01-11T15:53:29.461Z,102357.05
2019-01-11T15:56:00.774Z,102357.05
2019-01-11T15:58:29.968Z,102347.01
2019-01-11T16:00:59.165Z,102356.91
2019-01-11T16:03:28.281Z,102358.00
2019-01-11T16:06:29.392Z,102361.05
2019-01-11T16:10:00.331Z,102359.35
2019-01-11T16:12:41.565Z,102359.35
2019-01-11T16:15:41.099Z,102356.99
2019-01-11T16:18:14.772Z,102356.99
2019-01-11T16:20:43.938Z,102359.50
2019-01-11T16:23:13.054Z,102359.50
2019-01-11T16:25:42.267Z,102362.09
2019-01-11T16:28:11.445Z,102368.53
2019-01-11T16:30:40.557Z,102367.73
2019-01-11T16:33:09.779Z,102373.28
2019-01-11T16:35:38.883Z,102373.28
2019-01-11T16:38:08.108Z,102369.47
2019-01-11T16:40:37.358Z,102374.56
2019-01-11T16:43:06.572Z,102377.11
2019-01-11T16:45:35.721Z,102378.80
2019-01-11T16:50:33.405Z,102370.70
2019-01-11T16:53:02.499Z,102375.17
